createdAt,value
2023-03-18T00:02:32.043Z,71.1
2023-03-18T00:12:32.019Z,72.0
2023-03-18T00:17:32.005Z,72.8
2023-03-18T00:22:31.995Z,73.6
2023-03-18T00:27:32.014Z,74.0
2023-03-18T00:32:32.071Z,75.1
2023-03-18T00:42:32.004Z,76.3
2023-03-18T00:47:32.036Z,76.0
2023-03-18T00:57:32.034Z,75.9
2023-03-18T01:12:32.019Z,76.8
2023-03-18T01:22:32.030Z,76.4
2023-03-18T01:37:32.039Z,76.8
2023-03-18T01:47:32.025Z,78.5
2023-03-18T01:52:32.066Z,78.2
2023-03-18T01:57:32.035Z,78.2
2023-03-18T02:07:32.039Z,78.1
2023-03-18T02:27:32.021Z,79.1
2023-03-18T02:32:32.062Z,84.6
2023-03-18T02:37:32.042Z,89.9
2023-03-18T03:02:32.267Z,94.0
2023-03-18T03:07:32.104Z,93.8
2023-03-18T03:17:32.061Z,95.3
2023-03-18T03:27:32.102Z,100.0
2023-03-18T03:37:32.074Z,100.0
2023-03-18T04:12:32.085Z,100.0
2023-03-18T04:57:32.104Z,100.0
2023-03-18T05:07:32.076Z,100.0
2023-03-18T05:12:32.099Z,100.0
2023-03-18T06:07:32.109Z,100.0
2023-03-18T06:27:32.118Z,100.0
2023-03-18T06:32:32.141Z,100.0
2023-03-18T06:47:32.124Z,100.0
2023-03-18T06:52:32.120Z,100.0
2023-03-18T06:57:33.429Z,100.0
2023-03-18T07:02:32.125Z,100.0
2023-03-18T07:07:32.101Z,100.0
2023-03-18T07:22:32.114Z,100.0
2023-03-18T07:27:32.132Z,100.0
2023-03-18T07:42:32.121Z,100.0
2023-03-18T07:52:32.168Z,100.0
2023-03-18T07:57:32.121Z,100.0
2023-03-18T08:02:32.155Z,100.0
2023-03-18T08:07:32.150Z,100.0
2023-03-18T08:12:49.035Z,100.0
2023-03-18T08:17:32.161Z,100.0
2023-03-18T08:22:32.152Z,100.0
2023-03-18T08:27:32.148Z,100.0
2023-03-18T08:32:32.198Z,100.0
2023-03-18T08:37:32.174Z,100.0
2023-03-18T08:42:32.132Z,100.0
2023-03-18T08:47:32.155Z,100.0
2023-03-18T08:52:32.178Z,99.7
2023-03-18T08:57:32.152Z,98.9
2023-03-18T09:02:32.200Z,98.1
2023-03-18T09:12:32.148Z,96.0
2023-03-18T09:17:47.280Z,96.3
2023-03-18T09:22:32.182Z,94.5
2023-03-18T09:27:32.167Z,93.2
2023-03-18T09:32:32.237Z,89.8
2023-03-18T09:37:32.166Z,88.0
2023-03-18T09:47:32.184Z,86.1
2023-03-18T09:57:32.169Z,85.6
2023-03-18T10:02:32.186Z,83.4
2023-03-18T10:07:32.182Z,82.8
2023-03-18T10:12:32.188Z,77.8
2023-03-18T10:17:32.220Z,76.4
2023-03-18T10:22:32.195Z,74.2
2023-03-18T10:27:32.162Z,71.9
2023-03-18T10:32:46.483Z,64.6
2023-03-18T10:37:32.208Z,60.5
2023-03-18T10:42:32.195Z,59.9
2023-03-18T10:47:32.225Z,61.1
2023-03-18T10:52:32.221Z,62.4
2023-03-18T10:57:32.178Z,65.2
2023-03-18T11:02:32.235Z,69.2
2023-03-18T11:07:32.231Z,68.8
2023-03-18T11:12:32.190Z,67.0
2023-03-18T11:17:32.227Z,60.8
2023-03-18T11:22:32.223Z,66.2
2023-03-18T11:27:32.348Z,66.5
2023-03-18T11:32:32.456Z,66.5
2023-03-18T11:37:32.228Z,58.9
2023-03-18T11:42:32.205Z,51.4
2023-03-18T11:47:32.195Z,51.4
2023-03-18T11:52:32.244Z,54.9
2023-03-18T11:57:32.193Z,59.9
2023-03-18T12:02:32.238Z,55.5
2023-03-18T12:07:32.229Z,57.4
2023-03-18T12:12:32.239Z,47.5
2023-03-18T12:17:32.218Z,47.5
2023-03-18T12:22:32.231Z,49.5
2023-03-18T12:27:32.209Z,51.9
2023-03-18T12:32:32.293Z,53.4
2023-03-18T12:37:32.397Z,54.7
2023-03-18T12:42:32.256Z,55.4
2023-03-18T12:57:32.225Z,55.4
2023-03-18T13:02:32.275Z,56.5
2023-03-18T13:12:32.229Z,56.5
2023-03-18T13:17:32.222Z,57.6
2023-03-18T13:22:32.274Z,57.2
2023-03-18T13:32:32.311Z,60.2
2023-03-18T13:37:32.265Z,62.2
2023-03-18T13:42:32.257Z,69.8
2023-03-18T13:47:32.260Z,81.8
2023-03-18T13:52:32.275Z,83.9
2023-03-18T13:57:32.427Z,83.9
2023-03-18T14:02:32.241Z,81.8
2023-03-18T14:07:32.285Z,78.9
2023-03-18T14:12:32.266Z,77.3
2023-03-18T14:17:32.285Z,76.6
2023-03-18T14:22:32.286Z,76.0
2023-03-18T14:27:32.267Z,75.4
2023-03-18T14:32:32.282Z,75.9
2023-03-18T14:37:32.296Z,75.2
2023-03-18T14:42:32.276Z,74.8
2023-03-18T14:47:38.928Z,73.9
2023-03-18T14:52:32.301Z,72.2
2023-03-18T15:02:32.338Z,72.5
2023-03-18T15:07:32.284Z,71.7
2023-03-18T15:17:32.313Z,72.8
2023-03-18T15:22:32.282Z,73.0
2023-03-18T15:27:32.267Z,69.9
2023-03-18T15:32:32.382Z,54.5
2023-03-18T15:37:32.288Z,50.3
2023-03-18T15:42:32.284Z,49.7
2023-03-18T15:47:32.310Z,50.3
2023-03-18T15:57:32.294Z,46.9
2023-03-18T16:02:32.284Z,49.2
2023-03-18T16:07:32.300Z,50.2
2023-03-18T16:12:32.286Z,52.1
2023-03-18T16:17:32.332Z,53.2
2023-03-18T16:22:33.714Z,55.6
2023-03-18T16:27:32.328Z,56.9
2023-03-18T16:32:32.362Z,57.6
2023-03-18T16:37:32.343Z,56.8
2023-03-18T16:42:32.327Z,57.5
2023-03-18T16:47:32.345Z,58.5
2023-03-18T16:52:32.348Z,60.1
2023-03-18T16:57:32.302Z,61.5
2023-03-18T17:02:32.431Z,62.3
2023-03-18T17:07:32.325Z,65.2
2023-03-18T17:12:32.335Z,70.4
2023-03-18T17:17:32.334Z,70.0
2023-03-18T17:22:32.326Z,69.8
2023-03-18T17:27:32.360Z,70.6
2023-03-18T17:37:32.337Z,71.6
2023-03-18T17:42:32.346Z,72.5
2023-03-18T17:47:32.363Z,74.0
2023-03-18T17:52:32.326Z,75.8
2023-03-18T18:02:32.400Z,75.1
2023-03-18T18:07:32.339Z,73.3
2023-03-18T18:27:32.381Z,77.7
2023-03-18T18:37:32.358Z,78.3
2023-03-18T18:42:32.372Z,78.4
2023-03-18T18:47:32.369Z,79.4
2023-03-18T18:57:32.347Z,79.2
2023-03-18T19:02:32.383Z,80.3
2023-03-18T19:07:32.363Z,80.9
2023-03-18T19:17:32.405Z,80.1
2023-03-18T19:32:32.488Z,79.3
2023-03-18T19:37:32.398Z,80.5
2023-03-18T19:42:32.385Z,79.0
2023-03-18T19:52:32.370Z,78.3
2023-03-18T20:07:32.385Z,79.4
2023-03-18T20:27:32.424Z,78.0
2023-03-18T20:32:32.445Z,77.6
2023-03-18T20:37:32.391Z,72.8
2023-03-18T20:42:32.421Z,72.6
2023-03-18T20:52:32.386Z,71.4
2023-03-18T20:57:32.404Z,71.9
2023-03-18T21:02:32.400Z,73.6
2023-03-18T21:07:32.397Z,78.9
2023-03-18T21:12:32.444Z,82.8
2023-03-18T21:22:32.419Z,82.4
2023-03-18T21:27:32.433Z,81.8
2023-03-18T21:52:32.436Z,80.5
2023-03-18T21:57:32.414Z,80.7
2023-03-18T22:07:32.441Z,80.8
2023-03-18T22:27:32.445Z,81.0
2023-03-18T22:37:32.469Z,81.0
2023-03-18T22:42:32.459Z,83.6
2023-03-18T22:47:32.422Z,82.4
2023-03-18T22:52:32.461Z,82.4
2023-03-18T22:57:32.465Z,82.2
2023-03-18T23:07:32.459Z,82.0
2023-03-18T23:12:32.482Z,82.1
2023-03-18T23:22:32.440Z,81.8
2023-03-18T23:27:32.476Z,81.9
2023-03-18T23:32:32.534Z,82.4
2023-03-18T23:47:32.464Z,81.4
2023-03-18T23:52:32.445Z,81.8
2023-03-18T23:57:32.478Z,81.3
